Dong Fang You 2 — BXEC — position and weather

sailwx.info

Track history (hours):
 
Tides and Currents Weather Stations Pressure Air Temp Water Temp Dewpoint Dewpoint Depression Visibility Wind Speed Wind Dir Waves Ship Positions

Dong Fang You 2

Last reported at 2015-Aug-18 08:28 UTC. Time now 2015-Sep-03 02:34 UTC.
Position N 21°48' E 112°56'.
Warning: this ship's position is 15 days out of date.

Length 82 m; draft 3 m.

Type: Tanker. MMSI: 412464680.

Date/timePositionNaut miles runAvg speedWind from/ knotsBaromVisibWave heightAir tempDewpointWater temp
2015-Aug-18 08:28N 21°48' E 112°56'7 8.0
2015-Aug-18 07:33N 21°51' E 113°04'9 9.1
2015-Aug-18 06:33N 21°60' E 113°05'7 0.3
2015-Aug-17 07:31N 22°07' E 113°06'7 6.8
2015-Aug-17 06:34N 22°00' E 113°06'7 7.4
2015-Aug-17 05:33N 21°54' E 113°11'6 6.2
2015-Aug-17 04:33N 21°48' E 113°11'10 8.9
2015-Aug-17 03:27N 21°41' E 113°04'178 9.4
2015-Aug-16 08:33N 20°11' E 110°20'9 7.9
2015-Aug-16 07:28N 20°09' E 110°11'65 7.3
2015-Aug-15 22:33N 19°48' E 109°05'1 0.0
2015-Aug-14 06:10N 19°47' E 109°04'69 9.9
2015-Aug-13 23:12N 20°11' E 110°13'178 3.5
2015-Aug-11 20:32N 21°36' E 112°60'9 9.6
2015-Aug-11 19:33N 21°41' E 113°09'12 9.0
2015-Aug-11 18:13N 21°48' E 113°19'25 9.6
2015-Aug-11 15:33N 22°04' E 113°40'9 9.0
2015-Aug-11 14:33N 22°11' E 113°46'46 9.2
2015-Aug-11 09:33N 22°56' E 113°33'2 0.1
2015-Aug-10 10:31N 22°58' E 113°33'32 3.4
2015-Aug-10 01:05N 22°27' E 113°45'5 8.3
2015-Aug-10 00:27N 22°22' E 113°47'7 8.2
2015-Aug-09 23:32N 22°15' E 113°48'7 5.8
2015-Aug-09 22:19N 22°08' E 113°46'0 0.0
2015-Aug-09 19:25N 22°08' E 113°46'0 0.0
2015-Aug-09 18:13N 22°08' E 113°46'0 0.0
2015-Aug-09 17:31N 22°08' E 113°46'0 0.0
2015-Aug-09 16:31N 22°08' E 113°46'0 0.0
2015-Aug-09 15:31N 22°08' E 113°46'0 0.0
2015-Aug-09 14:31N 22°08' E 113°46'0 0.0
2015-Aug-09 12:31N 22°08' E 113°46'0 0.0
2015-Aug-09 11:19N 22°08' E 113°46'0 0.0
2015-Aug-09 10:31N 22°08' E 113°46'0 0.0
2015-Aug-09 09:31N 22°08' E 113°46'0 0.0
2015-Aug-09 08:31N 22°08' E 113°46'0 0.1
2015-Aug-09 07:31N 22°08' E 113°46'0 0.1
2015-Aug-09 06:33N 22°08' E 113°46'41 7.7
2015-Aug-09 01:15N 21°43' E 113°11'15 8.5
2015-Aug-08 23:29N 21°34' E 112°58'  
Track history (hours):
 
Tides and Currents Weather Stations Pressure Air Temp Water Temp Dewpoint Dewpoint Depression Visibility Wind Speed Wind Dir Waves Ship Positions

Dong Fang You 2

Last reported at 2015-Aug-18 08:28 UTC. Time now 2015-Sep-03 02:34 UTC.
Position N 21°48' E 112°56'.
Warning: this ship's position is 15 days out of date.

Length 82 m; draft 3 m.

Type: Tanker. MMSI: 412464680.

Date/timePositionNaut miles runAvg speedWind from/ knotsBaromVisibWave heightAir tempDewpointWater temp
2015-Aug-18 08:28N 21°48' E 112°56'7 8.0
2015-Aug-18 07:33N 21°51' E 113°04'9 9.1
2015-Aug-18 06:33N 21°60' E 113°05'7 0.3
2015-Aug-17 07:31N 22°07' E 113°06'7 6.8
2015-Aug-17 06:34N 22°00' E 113°06'7 7.4
2015-Aug-17 05:33N 21°54' E 113°11'6 6.2
2015-Aug-17 04:33N 21°48' E 113°11'10 8.9
2015-Aug-17 03:27N 21°41' E 113°04'178 9.4
2015-Aug-16 08:33N 20°11' E 110°20'9 7.9
2015-Aug-16 07:28N 20°09' E 110°11'65 7.3
2015-Aug-15 22:33N 19°48' E 109°05'1 0.0
2015-Aug-14 06:10N 19°47' E 109°04'69 9.9
2015-Aug-13 23:12N 20°11' E 110°13'178 3.5
2015-Aug-11 20:32N 21°36' E 112°60'9 9.6
2015-Aug-11 19:33N 21°41' E 113°09'12 9.0
2015-Aug-11 18:13N 21°48' E 113°19'25 9.6
2015-Aug-11 15:33N 22°04' E 113°40'9 9.0
2015-Aug-11 14:33N 22°11' E 113°46'46 9.2
2015-Aug-11 09:33N 22°56' E 113°33'2 0.1
2015-Aug-10 10:31N 22°58' E 113°33'32 3.4
2015-Aug-10 01:05N 22°27' E 113°45'5 8.3
2015-Aug-10 00:27N 22°22' E 113°47'7 8.2
2015-Aug-09 23:32N 22°15' E 113°48'7 5.8
2015-Aug-09 22:19N 22°08' E 113°46'0 0.0
2015-Aug-09 19:25N 22°08' E 113°46'0 0.0
2015-Aug-09 18:13N 22°08' E 113°46'0 0.0
2015-Aug-09 17:31N 22°08' E 113°46'0 0.0
2015-Aug-09 16:31N 22°08' E 113°46'0 0.0
2015-Aug-09 15:31N 22°08' E 113°46'0 0.0
2015-Aug-09 14:31N 22°08' E 113°46'0 0.0
2015-Aug-09 12:31N 22°08' E 113°46'0 0.0
2015-Aug-09 11:19N 22°08' E 113°46'0 0.0
2015-Aug-09 10:31N 22°08' E 113°46'0 0.0
2015-Aug-09 09:31N 22°08' E 113°46'0 0.0
2015-Aug-09 08:31N 22°08' E 113°46'0 0.1
2015-Aug-09 07:31N 22°08' E 113°46'0 0.1
2015-Aug-09 06:33N 22°08' E 113°46'41 7.7
2015-Aug-09 01:15N 21°43' E 113°11'15 8.5
2015-Aug-08 23:29N 21°34' E 112°58'  

Dump ship's entire track history